Time;durP1;ratioP1;P1;durP2;ratioP2;P2;SDS_P1;SDS_P2;PMS_P1;PMS_P2;Temp;Humidity;BMP_temperature;BMP_pressure;BME280_temperature;BME280_humidity;BME280_pressure;Samples;Min_cycle;Max_cycle;Signal;HPM_P1;HPM_P2
2024/01/12 00:01:12;;;;;;;7.37;3.83;;;13.20;92.10;;;;;;4592035;19;20005;-72
2024/01/12 00:02:56;;;;;;;8.63;3.30;;;13.10;92.00;;;;;;4591772;19;20010;-72
2024/01/12 00:04:34;;;;;;;7.83;3.37;;;13.10;91.90;;;;;;4591716;19;20039;-73
2024/01/12 00:06:08;;;;;;;9.63;4.27;;;13.10;91.90;;;;;;4590604;19;20014;-73
2024/01/12 00:07:44;;;;;;;6.50;3.27;;;13.10;91.80;;;;;;4591721;19;19998;-73
2024/01/12 00:09:20;;;;;;;6.17;3.37;;;13.10;91.70;;;;;;4591761;19;20010;-73
2024/01/12 00:10:54;;;;;;;8.03;3.03;;;13.10;91.70;;;;;;4591645;19;20319;-73
2024/01/12 00:12:28;;;;;;;6.23;3.33;;;13.10;91.50;;;;;;4591015;19;20006;-73
2024/01/12 00:14:03;;;;;;;5.27;3.00;;;13.10;91.40;;;;;;4591592;19;20006;-72
2024/01/12 00:15:37;;;;;;;5.53;2.83;;;13.10;91.30;;;;;;4591296;19;20447;-73
2024/01/12 00:17:12;;;;;;;5.57;2.83;;;13.10;91.20;;;;;;4591510;19;20010;-72
2024/01/12 00:18:47;;;;;;;5.73;2.43;;;13.10;91.10;;;;;;4591606;19;20007;-72
2024/01/12 00:20:21;;;;;;;5.47;2.50;;;13.10;91.10;;;;;;4591386;19;20039;-72
2024/01/12 00:21:55;;;;;;;7.10;3.03;;;13.10;91.00;;;;;;4591732;19;20003;-72
2024/01/12 00:23:30;;;;;;;6.50;2.50;;;13.10;90.80;;;;;;4590139;19;20003;-72
2024/01/12 00:25:04;;;;;;;5.03;2.10;;;13.10;90.70;;;;;;4590980;19;20078;-72
2024/01/12 00:26:38;;;;;;;5.97;2.60;;;13.00;90.50;;;;;;4590640;19;19999;-72
2024/01/12 00:28:15;;;;;;;5.67;2.07;;;13.00;90.40;;;;;;4591373;19;20029;-72
2024/01/12 00:29:50;;;;;;;6.53;2.40;;;13.00;90.40;;;;;;4591637;19;20009;-73
2024/01/12 00:31:25;;;;;;;4.70;2.37;;;13.00;90.40;;;;;;4595896;19;20013;-72
2024/01/12 00:33:00;;;;;;;5.03;2.03;;;13.00;90.50;;;;;;4594243;19;20010;-72
2024/01/12 00:34:34;;;;;;;6.53;2.10;;;13.00;90.40;;;;;;4596207;19;20307;-72
2024/01/12 00:36:08;;;;;;;5.03;2.13;;;13.00;90.30;;;;;;4594804;19;20310;-73
2024/01/12 00:37:43;;;;;;;4.60;2.03;;;13.00;90.00;;;;;;4596172;19;20010;-73
2024/01/12 00:39:17;;;;;;;3.70;1.83;;;13.00;89.70;;;;;;4595807;19;20381;-73
2024/01/12 00:40:52;;;;;;;3.83;1.97;;;13.00;89.30;;;;;;4594762;19;20044;-73
2024/01/12 00:42:28;;;;;;;4.10;1.73;;;13.00;89.10;;;;;;4595464;19;20006;-73
2024/01/12 00:44:04;;;;;;;4.97;1.93;;;13.00;88.80;;;;;;4594752;19;20338;-73
2024/01/12 00:45:38;;;;;;;7.40;2.83;;;13.00;88.60;;;;;;4595306;19;20006;-73
2024/01/12 00:47:13;;;;;;;8.20;3.73;;;13.00;88.30;;;;;;4595686;19;20451;-72
2024/01/12 00:48:49;;;;;;;14.70;7.10;;;13.00;88.10;;;;;;4595903;19;20002;-72
2024/01/12 00:50:23;;;;;;;8.87;4.03;;;13.00;87.90;;;;;;4595920;19;20490;-73
2024/01/12 00:52:00;;;;;;;7.77;4.03;;;13.00;87.60;;;;;;4594958;19;20008;-73
2024/01/12 00:53:34;;;;;;;9.07;3.93;;;13.00;87.50;;;;;;4594365;19;20011;-73
2024/01/12 00:55:08;;;;;;;8.47;4.17;;;13.00;87.50;;;;;;4594943;19;20291;-72
2024/01/12 00:56:43;;;;;;;11.50;5.43;;;13.00;87.30;;;;;;4595712;19;20006;-72
2024/01/12 00:58:18;;;;;;;8.60;4.20;;;13.00;87.20;;;;;;4595646;19;20009;-73
2024/01/12 00:59:52;;;;;;;7.40;3.27;;;13.00;87.10;;;;;;4595598;19;20058;-72
2024/01/12 01:15:00;;;;;;;4.97;2.20;;;12.90;86.10;;;;;;4568969;19;20017;-74
2024/01/12 01:16:36;;;;;;;5.33;2.43;;;12.90;86.10;;;;;;4594934;19;20023;-74
2024/01/12 01:18:10;;;;;;;5.13;2.73;;;12.90;86.10;;;;;;4595008;19;20005;-74
2024/01/12 01:19:44;;;;;;;7.60;2.80;;;12.90;86.00;;;;;;4594970;19;20454;-74
2024/01/12 01:21:20;;;;;;;7.77;5.20;;;12.90;85.90;;;;;;4595474;19;20019;-74
2024/01/12 01:22:54;;;;;;;7.07;3.87;;;12.90;85.80;;;;;;4594896;19;19998;-74
2024/01/12 01:24:29;;;;;;;6.13;3.53;;;12.90;85.70;;;;;;4594568;19;19998;-74
2024/01/12 01:26:04;;;;;;;5.00;2.33;;;12.90;85.80;;;;;;4593892;19;20527;-74
2024/01/12 01:27:38;;;;;;;5.37;2.00;;;12.90;85.80;;;;;;4594496;19;20014;-74
2024/01/12 01:29:11;;;;;;;4.10;2.07;;;12.90;85.60;;;;;;4595039;19;20020;-74
2024/01/12 01:30:47;;;;;;;4.70;2.10;;;12.90;85.30;;;;;;4594755;19;20002;-74
2024/01/12 01:32:21;;;;;;;4.57;1.87;;;12.90;85.30;;;;;;4593861;19;20002;-74
2024/01/12 01:33:56;;;;;;;4.80;2.10;;;12.90;85.10;;;;;;4594929;19;20019;-74
2024/01/12 01:35:31;;;;;;;5.20;2.10;;;12.90;85.10;;;;;;4593348;19;20065;-74
2024/01/12 01:37:07;;;;;;;4.83;2.27;;;12.90;84.90;;;;;;4594595;19;19999;-74
2024/01/12 01:38:41;;;;;;;5.37;1.63;;;12.90;84.90;;;;;;4594658;19;20371;-74
2024/01/12 01:40:17;;;;;;;4.50;1.77;;;12.90;84.80;;;;;;4594634;19;20006;-74
2024/01/12 01:41:52;;;;;;;4.67;2.10;;;12.90;84.80;;;;;;4594696;19;20007;-74
2024/01/12 01:43:27;;;;;;;5.00;2.27;;;12.90;84.90;;;;;;4593175;19;20006;-74
2024/01/12 01:45:03;;;;;;;4.17;1.80;;;12.90;84.80;;;;;;4593625;19;20026;-74
2024/01/12 01:46:37;;;;;;;3.20;1.83;;;12.90;84.70;;;;;;4593391;19;19999;-74
2024/01/12 01:48:10;;;;;;;3.53;1.93;;;12.90;84.80;;;;;;4594031;19;20009;-74
2024/01/12 01:49:45;;;;;;;4.67;2.00;;;12.90;84.70;;;;;;4593005;19;20003;-74
2024/01/12 01:51:19;;;;;;;5.17;2.07;;;12.90;84.80;;;;;;4593932;19;19995;-74
2024/01/12 01:52:53;;;;;;;3.80;1.93;;;12.90;84.50;;;;;;4591969;19;20005;-74
2024/01/12 01:54:28;;;;;;;3.57;1.90;;;12.90;84.50;;;;;;4593587;19;20315;-74
2024/01/12 01:56:02;;;;;;;5.77;2.17;;;12.90;84.50;;;;;;4592909;19;20098;-74
2024/01/12 01:57:37;;;;;;;4.33;1.97;;;12.80;84.40;;;;;;4593087;19;20003;-74
2024/01/12 01:59:14;;;;;;;4.20;1.83;;;12.90;84.40;;;;;;4592930;19;20006;-74
2024/01/12 02:00:48;;;;;;;4.03;2.00;;;12.90;84.30;;;;;;4593087;19;20009;-74
2024/01/12 02:02:22;;;;;;;5.50;2.17;;;12.90;84.30;;;;;;4592776;19;20003;-74
2024/01/12 02:03:58;;;;;;;4.73;2.30;;;12.90;84.40;;;;;;4593824;19;20006;-74
2024/01/12 02:05:32;;;;;;;4.40;1.97;;;12.90;84.50;;;;;;4591453;19;20002;-74
2024/01/12 02:07:06;;;;;;;4.60;2.63;;;12.80;84.50;;;;;;4592628;19;20006;-74
2024/01/12 02:08:43;;;;;;;5.03;2.27;;;12.90;84.50;;;;;;4594405;19;20417;-74
2024/01/12 02:10:17;;;;;;;4.43;2.27;;;12.80;84.40;;;;;;4594180;19;19999;-74
2024/01/12 02:11:52;;;;;;;7.40;2.50;;;12.80;84.10;;;;;;4593941;19;20023;-74
2024/01/12 02:13:28;;;;;;;4.27;2.03;;;12.80;84.10;;;;;;4594180;19;20013;-74
2024/01/12 02:15:02;;;;;;;4.97;2.30;;;12.90;84.20;;;;;;4592740;19;20019;-75
2024/01/12 02:16:36;;;;;;;5.20;2.50;;;12.80;84.20;;;;;;4593755;19;20324;-74
2024/01/12 02:18:11;;;;;;;6.13;2.20;;;12.90;84.30;;;;;;4592668;19;20014;-74
2024/01/12 02:19:45;;;;;;;4.67;2.30;;;12.90;84.30;;;;;;4593372;19;19994;-74
2024/01/12 02:21:19;;;;;;;6.43;2.50;;;12.80;84.20;;;;;;4593682;19;20446;-74
2024/01/12 02:22:54;;;;;;;7.27;3.43;;;12.80;84.50;;;;;;4593667;19;20011;-74
2024/01/12 02:24:28;;;;;;;6.93;3.30;;;12.90;84.40;;;;;;4593548;19;20089;-74
2024/01/12 02:26:04;;;;;;;5.80;2.70;;;12.90;84.50;;;;;;4593563;19;20307;-74
2024/01/12 02:27:40;;;;;;;6.83;3.40;;;12.80;84.30;;;;;;4592332;19;20007;-74
2024/01/12 02:29:14;;;;;;;6.97;2.93;;;12.80;84.20;;;;;;4593164;19;20002;-74
2024/01/12 02:30:48;;;;;;;5.27;2.73;;;12.80;84.30;;;;;;4593506;19;20007;-74
2024/01/12 02:32:23;;;;;;;8.07;4.10;;;12.80;84.30;;;;;;4593016;19;20065;-74
2024/01/12 02:33:57;;;;;;;8.43;3.60;;;12.80;84.20;;;;;;4593395;19;19998;-74
2024/01/12 02:35:31;;;;;;;7.87;4.53;;;12.90;84.30;;;;;;4592240;19;20337;-74
2024/01/12 02:37:07;;;;;;;7.70;3.67;;;12.80;84.20;;;;;;4591943;19;20006;-74
2024/01/12 02:38:48;;;;;;;8.63;4.50;;;12.80;84.20;;;;;;4593217;19;20423;-74
2024/01/12 02:40:22;;;;;;;13.55;6.35;;;12.80;84.20;;;;;;4593401;19;20003;-74
2024/01/12 02:41:57;;;;;;;10.40;5.27;;;12.80;84.10;;;;;;4593255;19;20011;-74
2024/01/12 02:43:31;;;;;;;8.17;4.30;;;12.80;84.00;;;;;;4593195;19;20009;-74
2024/01/12 02:45:06;;;;;;;8.60;4.77;;;12.80;83.90;;;;;;4592371;19;20009;-74
2024/01/12 02:46:41;;;;;;;8.13;4.47;;;12.80;84.00;;;;;;4593170;19;20430;-74
2024/01/12 02:48:15;;;;;;;6.83;4.27;;;12.80;84.20;;;;;;4591579;19;20329;-74
2024/01/12 02:49:49;;;;;;;9.23;5.40;;;12.80;84.10;;;;;;4592716;19;20088;-74
2024/01/12 02:51:26;;;;;;;9.70;6.47;;;12.80;84.00;;;;;;4593105;19;20013;-74
2024/01/12 02:53:01;;;;;;;10.50;6.97;;;12.80;84.00;;;;;;4590608;19;20426;-74
2024/01/12 02:54:35;;;;;;;35.60;18.90;;;12.80;84.30;;;;;;4592961;19;20321;-74
2024/01/12 02:56:11;;;;;;;38.37;21.40;;;12.80;84.10;;;;;;4593063;19;20006;-74
2024/01/12 02:57:45;;;;;;;34.23;17.63;;;12.80;84.10;;;;;;4591644;19;19999;-74
2024/01/12 02:59:19;;;;;;;27.47;15.37;;;12.80;84.10;;;;;;4592638;19;19998;-74
2024/01/12 03:00:54;;;;;;;21.87;12.93;;;12.80;84.00;;;;;;4592930;19;20411;-74
2024/01/12 03:02:29;;;;;;;14.53;9.97;;;12.80;84.10;;;;;;4593138;19;20003;-74
2024/01/12 03:04:03;;;;;;;19.07;12.70;;;12.80;84.00;;;;;;4592826;19;20002;-74
2024/01/12 03:05:39;;;;;;;24.03;14.97;;;12.80;84.00;;;;;;4591748;19;20017;-74
2024/01/12 03:07:13;;;;;;;30.50;17.93;;;12.80;83.90;;;;;;4592755;19;20452;-76
2024/01/12 03:08:48;;;;;;;45.80;23.53;;;12.80;84.00;;;;;;4592813;19;20003;-75
2024/01/12 03:10:23;;;;;;;44.80;23.47;;;12.90;84.00;;;;;;4593075;19;20006;-74
2024/01/12 03:11:57;;;;;;;40.13;21.70;;;12.90;83.90;;;;;;4592362;19;20010;-74
2024/01/12 03:13:33;;;;;;;44.60;23.60;;;12.90;84.60;;;;;;4592581;19;19998;-73
2024/01/12 03:15:09;;;;;;;41.43;22.27;;;13.00;84.20;;;;;;4591656;19;20350;-74
2024/01/12 03:16:44;;;;;;;35.70;21.57;;;13.00;84.30;;;;;;4591557;19;20349;-74
2024/01/12 03:18:18;;;;;;;32.37;18.10;;;12.90;84.20;;;;;;4592264;19;20010;-74
2024/01/12 03:19:53;;;;;;;26.83;16.73;;;13.00;84.30;;;;;;4593011;19;20457;-73
2024/01/12 03:21:27;;;;;;;19.73;11.60;;;13.00;84.20;;;;;;4592556;19;20088;-73
2024/01/12 03:23:01;;;;;;;16.93;9.93;;;13.00;84.80;;;;;;4592724;19;20436;-73
2024/01/12 03:24:37;;;;;;;14.90;9.33;;;13.00;84.30;;;;;;4592185;19;20034;-73
2024/01/12 03:26:10;;;;;;;12.07;7.20;;;13.00;84.20;;;;;;4592642;19;20009;-73
2024/01/12 03:27:46;;;;;;;10.73;6.73;;;13.00;84.30;;;;;;4592420;19;20082;-73
2024/01/12 03:29:22;;;;;;;11.83;6.90;;;13.00;84.30;;;;;;4592407;19;20454;-73
2024/01/12 03:30:56;;;;;;;11.67;6.50;;;13.00;84.30;;;;;;4592599;19;20306;-73
2024/01/12 03:32:30;;;;;;;9.17;5.83;;;13.00;84.30;;;;;;4591903;19;20325;-73
2024/01/12 03:34:06;;;;;;;12.80;7.60;;;13.00;84.90;;;;;;4591469;19;20006;-73
2024/01/12 03:35:41;;;;;;;12.60;6.57;;;13.00;84.30;;;;;;4591049;19;20006;-73
2024/01/12 03:37:14;;;;;;;9.73;6.47;;;13.00;84.40;;;;;;4592199;19;20088;-73
2024/01/12 03:38:53;;;;;;;10.80;5.43;;;13.00;84.20;;;;;;4592437;19;20006;-73
2024/01/12 03:40:27;;;;;;;9.67;6.03;;;13.00;84.20;;;;;;4590898;19;20006;-75
2024/01/12 03:42:01;;;;;;;11.03;6.63;;;13.00;84.20;;;;;;4592112;19;20022;-73
2024/01/12 03:43:36;;;;;;;13.13;7.13;;;13.00;84.20;;;;;;4592195;19;20430;-73
2024/01/12 03:45:11;;;;;;;11.60;7.20;;;13.00;84.10;;;;;;4591252;19;20040;-73
2024/01/12 03:46:45;;;;;;;38.63;19.67;;;13.00;84.20;;;;;;4591997;19;20002;-73
2024/01/12 03:48:21;;;;;;;64.20;32.53;;;12.90;84.20;;;;;;4592084;19;20450;-73
2024/01/12 03:49:57;;;;;;;39.83;20.10;;;12.90;84.20;;;;;;4591955;19;20013;-73
2024/01/12 03:51:34;;;;;;;31.17;17.67;;;12.90;84.20;;;;;;4591965;19;20002;-74
2024/01/12 03:53:10;;;;;;;53.50;28.10;;;12.90;84.20;;;;;;4590807;19;20010;-73
2024/01/12 03:54:44;;;;;;;31.23;16.87;;;12.90;84.20;;;;;;4590060;19;20003;-73
2024/01/12 03:56:18;;;;;;;24.10;13.47;;;12.90;84.20;;;;;;4591502;19;20010;-73
2024/01/12 03:57:54;;;;;;;17.23;11.07;;;12.90;84.20;;;;;;4591870;19;20032;-73
2024/01/12 03:59:30;;;;;;;19.10;12.30;;;12.90;84.20;;;;;;4591807;19;20003;-73
2024/01/12 04:01:07;;;;;;;31.50;17.20;;;12.90;84.30;;;;;;4591763;19;19999;-73
2024/01/12 04:02:43;;;;;;;28.77;16.97;;;12.90;84.30;;;;;;4590769;19;20054;-74
2024/01/12 04:04:17;;;;;;;40.10;19.90;;;12.90;84.20;;;;;;4590208;19;20003;-73
2024/01/12 04:05:51;;;;;;;58.20;26.07;;;12.80;84.10;;;;;;4593965;19;20006;-75
2024/01/12 04:07:26;;;;;;;55.90;26.60;;;12.80;84.10;;;;;;4596500;19;20013;-73
2024/01/12 04:09:00;;;;;;;48.53;24.67;;;12.80;84.00;;;;;;4596363;19;19998;-73
2024/01/12 04:10:34;;;;;;;32.00;17.40;;;12.80;84.10;;;;;;4595218;19;20009;-73
2024/01/12 04:12:11;;;;;;;38.63;19.93;;;12.80;84.10;;;;;;4595449;19;20438;-73
2024/01/12 04:13:46;;;;;;;36.50;17.87;;;12.80;84.00;;;;;;4594986;19;20430;-73
2024/01/12 04:15:21;;;;;;;33.13;15.77;;;12.80;84.10;;;;;;4594185;19;20019;-73
2024/01/12 04:16:58;;;;;;;20.07;10.30;;;12.80;84.20;;;;;;4596288;19;20430;-73
2024/01/12 04:18:33;;;;;;;17.53;9.53;;;12.80;84.20;;;;;;4596205;19;19999;-73
2024/01/12 04:20:08;;;;;;;13.27;7.10;;;12.80;84.20;;;;;;4596117;19;20010;-73
2024/01/12 04:21:44;;;;;;;9.87;5.57;;;12.80;84.30;;;;;;4596232;19;20342;-73
2024/01/12 04:23:20;;;;;;;7.83;5.33;;;12.80;84.40;;;;;;4596374;19;20037;-72
2024/01/12 04:24:54;;;;;;;9.67;5.20;;;12.80;84.40;;;;;;4595414;19;20373;-73
2024/01/12 04:26:30;;;;;;;9.10;5.87;;;12.80;84.50;;;;;;4596053;19;20035;-73
2024/01/12 04:28:04;;;;;;;11.57;6.20;;;12.70;84.40;;;;;;4596018;19;20006;-73
2024/01/12 04:29:39;;;;;;;11.97;6.83;;;12.80;84.50;;;;;;4594889;19;20325;-73
2024/01/12 04:31:14;;;;;;;11.83;6.80;;;12.70;84.40;;;;;;4595674;19;20006;-74
2024/01/12 04:32:48;;;;;;;12.20;7.20;;;12.70;84.40;;;;;;4593219;19;20003;-72
2024/01/12 04:34:23;;;;;;;17.20;6.07;;;12.70;84.30;;;;;;4595464;19;20022;-73
2024/01/12 04:36:00;;;;;;;10.47;6.67;;;12.70;84.30;;;;;;4594542;19;20003;-73
2024/01/12 04:37:34;;;;;;;10.53;5.87;;;12.70;84.40;;;;;;4595455;19;20026;-73
2024/01/12 04:39:08;;;;;;;9.87;6.17;;;12.70;84.60;;;;;;4594429;19;19998;-73
2024/01/12 04:40:43;;;;;;;9.97;6.30;;;12.70;84.40;;;;;;4595462;19;20006;-72
2024/01/12 04:42:17;;;;;;;11.47;6.60;;;12.70;84.40;;;;;;4595916;19;20002;-74
2024/01/12 04:43:51;;;;;;;11.90;6.50;;;12.70;84.40;;;;;;4595897;19;20299;-73
2024/01/12 04:45:26;;;;;;;11.73;6.83;;;12.70;84.50;;;;;;4594211;19;20007;-74
2024/01/12 04:47:00;;;;;;;12.37;7.60;;;12.70;84.80;;;;;;4595649;19;19999;-74
2024/01/12 04:48:34;;;;;;;13.30;6.63;;;12.70;84.40;;;;;;4595589;19;20344;-74
2024/01/12 04:50:09;;;;;;;12.13;6.47;;;12.80;84.60;;;;;;4595606;19;20062;-74
2024/01/12 04:51:44;;;;;;;11.13;6.57;;;12.90;84.70;;;;;;4595570;19;20430;-74
2024/01/12 04:53:18;;;;;;;10.97;6.90;;;13.00;84.70;;;;;;4595537;19;20003;-72
2024/01/12 04:54:54;;;;;;;12.13;7.23;;;13.10;84.60;;;;;;4594969;19;20011;-72
2024/01/12 04:56:28;;;;;;;10.37;6.37;;;13.30;84.30;;;;;;4594137;19;20009;-75
2024/01/12 04:58:03;;;;;;;12.20;6.53;;;13.40;84.00;;;;;;4595043;19;20010;-79
2024/01/12 04:59:38;;;;;;;9.83;5.50;;;13.50;83.70;;;;;;4595547;19;20086;-81
2024/01/12 05:01:12;;;;;;;11.83;5.40;;;13.60;83.40;;;;;;4594024;19;20057;-85
2024/01/12 05:02:46;;;;;;;9.47;5.40;;;13.70;83.10;;;;;;4594043;19;19999;-83
2024/01/12 05:04:22;;;;;;;10.70;5.93;;;13.80;82.90;;;;;;4594678;19;20091;-73
2024/01/12 05:05:57;;;;;;;9.90;6.63;;;13.90;82.70;;;;;;4595589;19;20314;-76
2024/01/12 05:07:33;;;;;;;9.50;6.63;;;13.90;82.70;;;;;;4593897;19;20553;-80
2024/01/12 05:09:08;;;;;;;13.50;7.50;;;13.90;82.50;;;;;;4594980;19;20006;-79
2024/01/12 05:10:41;;;;;;;18.97;10.77;;;13.90;82.60;;;;;;4595124;19;19999;-80
2024/01/12 05:12:16;;;;;;;16.27;9.50;;;13.90;82.40;;;;;;4594820;19;20009;-80
2024/01/12 05:13:51;;;;;;;16.40;9.67;;;13.90;82.30;;;;;;4595371;19;20031;-80
2024/01/12 05:15:25;;;;;;;16.53;9.67;;;13.90;82.40;;;;;;4593502;19;20031;-76
2024/01/12 05:16:59;;;;;;;18.27;11.10;;;13.90;82.40;;;;;;4594422;19;20006;-79
2024/01/12 05:18:35;;;;;;;20.13;10.63;;;13.80;82.60;;;;;;4593791;19;20011;-78
2024/01/12 05:20:09;;;;;;;19.23;10.53;;;13.80;82.30;;;;;;4594882;19;20015;-79
2024/01/12 05:21:43;;;;;;;18.77;12.07;;;13.80;82.20;;;;;;4594998;19;20173;-79
2024/01/12 05:23:19;;;;;;;18.70;10.40;;;13.80;82.20;;;;;;4595186;19;20006;-78
2024/01/12 05:24:53;;;;;;;18.77;11.43;;;13.80;85.20;;;;;;4594004;19;20432;-75
2024/01/12 05:26:27;;;;;;;22.10;12.47;;;13.80;82.40;;;;;;4594898;19;19999;-76
2024/01/12 05:28:03;;;;;;;22.17;13.10;;;13.70;82.30;;;;;;4595292;19;20003;-77
2024/01/12 05:29:36;;;;;;;27.35;16.05;;;13.70;82.30;;;;;;4595061;19;20005;-69
2024/01/12 05:31:11;;;;;;;25.10;15.43;;;13.70;82.30;;;;;;4594767;19;20003;-80
2024/01/12 05:32:49;;;;;;;23.53;15.03;;;13.60;82.20;;;;;;4592467;19;20023;-89
2024/01/12 05:34:23;;;;;;;25.13;14.47;;;13.60;82.30;;;;;;4594246;19;20003;-73
2024/01/12 05:36:00;;;;;;;25.67;15.80;;;13.60;82.40;;;;;;4594689;19;19998;-74
2024/01/12 05:37:35;;;;;;;24.70;16.00;;;13.50;82.30;;;;;;4594704;19;20011;-73
2024/01/12 05:39:10;;;;;;;28.13;16.90;;;13.50;82.20;;;;;;4594890;19;20118;-73
2024/01/12 05:40:44;;;;;;;25.58;16.42;;;13.50;82.20;;;;;;4594595;19;19999;-73
2024/01/12 05:42:19;;;;;;;24.17;15.90;;;13.50;82.20;;;;;;4594626;19;19998;-73
2024/01/12 05:43:53;;;;;;;26.03;15.77;;;13.40;82.00;;;;;;4594497;19;20002;-72
2024/01/12 05:45:28;;;;;;;25.37;16.30;;;13.40;82.10;;;;;;4591835;19;20002;-71
2024/01/12 05:47:04;;;;;;;24.70;16.20;;;13.30;81.90;;;;;;4593533;19;20029;-84
2024/01/12 05:48:38;;;;;;;25.53;16.47;;;13.30;82.00;;;;;;4594115;19;20306;-73
2024/01/12 05:50:12;;;;;;;26.90;18.23;;;13.30;82.10;;;;;;4594601;19;20069;-77
2024/01/12 05:51:48;;;;;;;26.67;18.57;;;13.20;82.10;;;;;;4594467;19;20010;-77
2024/01/12 05:53:25;;;;;;;28.80;17.63;;;13.30;82.20;;;;;;4594229;19;20003;-73
2024/01/12 05:55:00;;;;;;;26.03;17.83;;;13.20;82.10;;;;;;4593567;19;20066;-77
2024/01/12 05:56:36;;;;;;;24.27;17.77;;;13.20;82.10;;;;;;4594283;19;20013;-78
2024/01/12 05:58:10;;;;;;;25.60;16.80;;;13.20;82.70;;;;;;4592842;19;20085;-78
2024/01/12 05:59:44;;;;;;;26.17;17.77;;;13.20;82.30;;;;;;4593778;19;19998;-77
2024/01/12 06:01:19;;;;;;;28.20;16.17;;;13.20;82.10;;;;;;4592855;19;20020;-77
2024/01/12 06:02:53;;;;;;;20.67;14.63;;;13.20;82.10;;;;;;4592689;19;20058;-77
2024/01/12 06:04:27;;;;;;;19.60;13.47;;;13.10;82.00;;;;;;4593250;19;20495;-78
2024/01/12 06:06:05;;;;;;;21.30;13.70;;;13.10;82.10;;;;;;4592755;19;20010;-77
2024/01/12 06:07:41;;;;;;;24.67;15.17;;;13.10;82.20;;;;;;4593681;19;20006;-78
2024/01/12 06:09:15;;;;;;;22.30;15.27;;;13.10;82.30;;;;;;4594239;19;20002;-77
2024/01/12 06:10:50;;;;;;;25.47;16.90;;;13.10;82.30;;;;;;4594388;19;20003;-78
2024/01/12 06:12:25;;;;;;;24.77;15.50;;;13.10;82.50;;;;;;4592055;19;20010;-78
2024/01/12 06:14:00;;;;;;;21.73;14.10;;;13.10;82.30;;;;;;4593583;19;20423;-77
2024/01/12 06:15:35;;;;;;;22.70;14.33;;;13.20;82.20;;;;;;4592336;19;20446;-77
2024/01/12 06:17:09;;;;;;;17.70;12.20;;;13.20;82.30;;;;;;4592658;19;20014;-78
2024/01/12 06:18:44;;;;;;;17.07;10.63;;;13.20;82.30;;;;;;4593853;19;19998;-77
2024/01/12 06:20:22;;;;;;;13.77;8.10;;;13.30;82.30;;;;;;4593994;19;20007;-77
2024/01/12 06:21:56;;;;;;;14.67;9.73;;;13.40;82.40;;;;;;4593691;19;20304;-78
2024/01/12 06:23:30;;;;;;;25.87;15.37;;;13.50;82.30;;;;;;4593652;19;20027;-78
2024/01/12 06:25:05;;;;;;;25.90;16.53;;;13.60;82.20;;;;;;4593189;19;20017;-78
2024/01/12 06:26:42;;;;;;;25.00;21.40;;;13.70;82.10;;;;;;4592419;19;20356;-77
2024/01/12 06:28:16;;;;;;;23.17;18.60;;;13.80;81.90;;;;;;4590220;19;20086;-77
2024/01/12 06:29:55;;;;;;;23.10;20.67;;;13.90;81.70;;;;;;4592843;19;20438;-78
2024/01/12 06:31:32;;;;;;;29.97;23.07;;;14.00;81.50;;;;;;4593515;19;20054;-77
2024/01/12 06:33:06;;;;;;;29.53;21.83;;;14.00;81.10;;;;;;4591039;19;20086;-77
2024/01/12 06:34:41;;;;;;;34.53;24.07;;;14.10;80.90;;;;;;4591781;19;20017;-78
2024/01/12 06:36:15;;;;;;;39.20;24.37;;;14.20;80.80;;;;;;4593069;19;20003;-76
2024/01/12 06:37:50;;;;;;;70.53;39.07;;;14.30;80.50;;;;;;4593330;19;20002;-77
2024/01/12 06:39:25;;;;;;;158.03;72.83;;;14.40;80.40;;;;;;4593311;19;20019;-76
2024/01/12 06:41:00;;;;;;;173.43;89.73;;;14.40;80.00;;;;;;4592244;19;20034;-77
2024/01/12 06:42:36;;;;;;;135.40;67.63;;;14.50;79.80;;;;;;4592078;19;20009;-77
2024/01/12 06:44:11;;;;;;;112.88;60.83;;;14.50;79.60;;;;;;4593087;19;20409;-77
2024/01/12 06:45:45;;;;;;;99.20;51.93;;;14.50;79.60;;;;;;4591796;19;20465;-77
2024/01/12 06:47:19;;;;;;;92.47;45.27;;;14.50;79.50;;;;;;4592820;19;19999;-77
2024/01/12 06:48:54;;;;;;;78.53;39.57;;;14.40;79.40;;;;;;4593386;19;20312;-77
2024/01/12 06:50:29;;;;;;;58.35;30.83;;;14.40;79.40;;;;;;4593093;19;20006;-81
2024/01/12 06:52:05;;;;;;;61.03;31.73;;;14.40;79.40;;;;;;4593406;19;20006;-81
2024/01/12 06:53:41;;;;;;;54.10;27.70;;;14.30;79.30;;;;;;4593049;19;20035;-75
2024/01/12 06:55:15;;;;;;;48.10;26.17;;;14.30;79.30;;;;;;4592042;19;20306;-78
2024/01/12 06:56:51;;;;;;;44.43;24.33;;;14.30;79.40;;;;;;4593014;19;20002;-76
2024/01/12 06:58:26;;;;;;;43.57;24.60;;;14.20;79.50;;;;;;4591622;19;20020;-76
2024/01/12 07:00:00;;;;;;;53.83;32.80;;;14.20;79.60;;;;;;4592668;19;20006;-81
2024/01/12 07:01:35;;;;;;;56.63;34.40;;;14.10;79.60;;;;;;4593611;19;20007;-84
2024/01/12 07:03:12;;;;;;;67.00;42.63;;;14.10;79.80;;;;;;4591830;19;20106;-80
2024/01/12 07:04:46;;;;;;;72.90;47.77;;;14.10;80.00;;;;;;4592175;19;20002;-71
2024/01/12 07:06:20;;;;;;;84.03;49.93;;;14.00;80.00;;;;;;4592708;19;20026;-72
2024/01/12 07:07:56;;;;;;;85.68;49.40;;;14.00;80.20;;;;;;4591416;19;20006;-72
2024/01/12 07:09:30;;;;;;;57.87;36.63;;;13.90;80.20;;;;;;4592605;19;20026;-71
2024/01/12 07:11:05;;;;;;;47.37;31.30;;;13.90;80.30;;;;;;4592929;19;20337;-71
2024/01/12 07:12:40;;;;;;;49.17;32.03;;;13.90;80.70;;;;;;4590782;19;20487;-71
2024/01/12 07:14:14;;;;;;;49.30;32.47;;;13.80;80.80;;;;;;4592077;19;20042;-70
2024/01/12 07:15:48;;;;;;;54.40;33.17;;;13.80;80.90;;;;;;4591381;19;20311;-70
2024/01/12 07:17:25;;;;;;;46.80;32.30;;;13.80;81.10;;;;;;4592600;19;20013;-70
2024/01/12 07:18:59;;;;;;;38.87;27.20;;;13.80;81.20;;;;;;4592527;19;20019;-70
2024/01/12 07:20:33;;;;;;;50.43;32.53;;;13.70;81.30;;;;;;4592465;19;20023;-70
2024/01/12 07:22:08;;;;;;;46.67;31.10;;;13.70;81.40;;;;;;4592481;19;20023;-70
2024/01/12 07:23:43;;;;;;;51.90;33.47;;;13.70;81.50;;;;;;4592426;19;20302;-70
2024/01/12 07:25:17;;;;;;;51.17;32.60;;;13.60;81.50;;;;;;4591529;19;20047;-70
2024/01/12 07:26:52;;;;;;;52.73;35.17;;;13.60;81.70;;;;;;4592439;19;20066;-70
2024/01/12 07:28:26;;;;;;;88.87;58.27;;;13.60;81.90;;;;;;4592630;19;19994;-69
2024/01/12 07:30:00;;;;;;;83.53;55.70;;;13.60;82.10;;;;;;4592325;19;19999;-70
2024/01/12 07:31:36;;;;;;;50.37;33.40;;;13.60;82.30;;;;;;4592341;19;20006;-74
2024/01/12 07:33:11;;;;;;;36.50;27.10;;;13.50;82.30;;;;;;4591269;19;19999;-74
2024/01/12 07:34:45;;;;;;;33.17;24.47;;;13.50;82.50;;;;;;4591763;19;20009;-73
2024/01/12 07:36:21;;;;;;;33.70;23.83;;;13.50;82.60;;;;;;4590907;19;20327;-82
2024/01/12 07:37:57;;;;;;;29.00;20.53;;;13.50;82.70;;;;;;4592282;19;20457;-74
2024/01/12 07:39:31;;;;;;;30.10;20.83;;;13.50;82.80;;;;;;4591855;19;20006;-73
2024/01/12 07:41:09;;;;;;;31.03;20.93;;;13.40;83.00;;;;;;4592008;19;20015;-80
2024/01/12 07:42:43;;;;;;;29.87;20.80;;;13.40;83.10;;;;;;4591655;19;20023;-80
2024/01/12 07:44:18;;;;;;;28.43;15.20;;;13.40;83.20;;;;;;4590612;19;20018;-80
2024/01/12 07:45:56;;;;;;;27.23;13.73;;;13.60;99.90;;;;;;4592426;19;20073;-71
2024/01/12 07:47:30;;;;;;;21.57;10.47;;;13.90;99.90;;;;;;4592057;19;20010;-71
2024/01/12 07:49:04;;;;;;;20.30;10.47;;;14.20;99.90;;;;;;4591967;19;19999;-71
2024/01/12 07:50:39;;;;;;;20.13;10.43;;;14.50;99.90;;;;;;4590700;19;20085;-71
2024/01/12 07:52:15;;;;;;;22.47;11.67;;;14.80;99.90;;;;;;4591472;19;20303;-72
2024/01/12 07:53:48;;;;;;;21.42;10.95;;;14.90;99.90;;;;;;4590437;19;20017;-71
2024/01/12 07:55:24;;;;;;;17.33;9.60;;;15.10;99.90;;;;;;4590809;19;20515;-71
2024/01/12 07:56:59;;;;;;;19.55;10.35;;;15.20;99.90;;;;;;4590876;19;19999;-72
2024/01/12 07:58:33;;;;;;;19.08;10.18;;;15.30;99.90;;;;;;4590686;19;20430;-73
2024/01/12 08:00:08;;;;;;;18.25;10.48;;;15.40;99.90;;;;;;4591793;19;20441;-72
2024/01/12 08:01:43;;;;;;;18.98;9.60;;;15.50;99.90;;;;;;4591716;19;20009;-73
2024/01/12 08:03:17;;;;;;;18.63;8.95;;;15.60;99.90;;;;;;4591778;19;20306;-72
2024/01/12 08:04:53;;;;;;;18.00;9.68;;;15.60;99.90;;;;;;4591076;19;20027;-73
2024/01/12 08:06:27;;;;;;;20.75;10.23;;;15.60;99.90;;;;;;4591949;19;19999;-73
2024/01/12 08:08:02;;;;;;;18.08;10.13;;;15.70;99.90;;;;;;4591657;19;20444;-73
2024/01/12 08:09:37;;;;;;;16.75;9.18;;;15.70;99.90;;;;;;4590754;19;20474;-73
2024/01/12 08:11:11;;;;;;;16.13;9.57;;;15.70;99.90;;;;;;4591273;19;20091;-74
2024/01/12 08:12:48;;;;;;;18.77;10.85;;;15.70;99.90;;;;;;4591117;19;20009;-73
2024/01/12 08:14:26;;;;;;;14.43;8.60;;;15.80;99.90;;;;;;4591068;19;20013;-74
2024/01/12 08:15:59;;;;;;;20.02;10.55;;;15.80;99.90;;;;;;4591869;19;20010;-74
2024/01/12 08:17:35;;;;;;;18.50;9.85;;;15.90;99.90;;;;;;4591473;19;20478;-73
2024/01/12 08:19:10;;;;;;;16.60;8.50;;;16.00;99.90;;;;;;4591772;19;20359;-73
2024/01/12 08:20:45;;;;;;;18.20;9.52;;;16.10;99.90;;;;;;4590432;19;20003;-73